createdAt,value
2022-08-30T00:00:47.398Z,22.49
2022-08-30T00:02:50.498Z,22.42
2022-08-30T00:04:55.178Z,22.42
2022-08-30T00:06:57.948Z,21.98
2022-08-30T00:09:00.821Z,21.04
2022-08-30T00:11:05.496Z,19.50
2022-08-30T00:13:09.222Z,20.93
2022-08-30T00:15:14.777Z,21.34
2022-08-30T00:17:19.302Z,21.73
2022-08-30T00:19:22.073Z,22.11
2022-08-30T00:21:27.091Z,22.28
2022-08-30T00:23:29.880Z,22.24
2022-08-30T00:25:32.768Z,22.34
2022-08-30T00:27:35.601Z,22.41
2022-08-30T00:29:38.496Z,22.52
2022-08-30T00:31:41.320Z,22.39
2022-08-30T00:33:44.121Z,22.52
2022-08-30T00:35:46.872Z,22.51
2022-08-30T00:37:51.095Z,22.59
2022-08-30T00:39:53.916Z,22.67
2022-08-30T00:41:56.711Z,22.68
2022-08-30T00:44:00.888Z,22.64
2022-08-30T00:46:07.653Z,22.53
2022-08-30T00:48:10.711Z,22.54
2022-08-30T00:50:17.316Z,22.00
2022-08-30T00:52:23.363Z,21.80
2022-08-30T00:54:28.495Z,21.97
2022-08-30T00:56:32.377Z,22.12
2022-08-30T00:58:38.208Z,22.24
2022-08-30T01:00:41.358Z,22.11
2022-08-30T01:02:44.393Z,21.12
2022-08-30T01:04:51.805Z,21.01
2022-08-30T01:06:55.144Z,21.37
2022-08-30T01:08:58.802Z,21.66
2022-08-30T01:11:04.632Z,21.62
2022-08-30T01:13:07.997Z,19.92
2022-08-30T01:15:14.389Z,18.69
2022-08-30T01:17:18.150Z,19.67
2022-08-30T01:19:35.492Z,19.83
2022-08-30T01:21:46.983Z,20.67
2022-08-30T01:23:54.738Z,20.89
2022-08-30T01:25:57.608Z,21.10
2022-08-30T01:28:05.093Z,20.78
2022-08-30T01:30:08.973Z,21.11
2022-08-30T01:32:20.971Z,21.20
2022-08-30T01:34:24.406Z,21.34
2022-08-30T01:36:27.352Z,21.53
2022-08-30T01:38:34.678Z,21.36
2022-08-30T01:40:38.892Z,21.65
2022-08-30T01:42:42.137Z,21.59
2022-08-30T01:44:45.016Z,21.64
2022-08-30T01:46:48.932Z,21.78
2022-08-30T01:48:54.304Z,21.75
2022-08-30T01:50:57.230Z,21.98
2022-08-30T01:53:00.155Z,21.88
2022-08-30T01:55:03.540Z,21.92
2022-08-30T01:57:10.924Z,21.65
2022-08-30T01:59:14.314Z,21.70
2022-08-30T02:01:19.941Z,21.13
2022-08-30T02:03:23.031Z,20.79
2022-08-30T02:05:26.765Z,20.72
2022-08-30T02:07:29.714Z,20.11
2022-08-30T02:09:32.578Z,19.19
2022-08-30T02:11:35.383Z,19.25
2022-08-30T02:13:40.856Z,18.91
2022-08-30T02:15:43.715Z,19.70
2022-08-30T02:17:46.434Z,20.17
2022-08-30T02:19:49.464Z,20.42
2022-08-30T02:21:52.309Z,20.71
2022-08-30T02:23:55.421Z,20.90
2022-08-30T02:25:58.401Z,20.95
2022-08-30T02:28:01.252Z,21.03
2022-08-30T02:30:07.087Z,21.00
2022-08-30T02:32:10.049Z,20.92
2022-08-30T02:34:12.923Z,20.99
2022-08-30T02:36:15.739Z,21.03
2022-08-30T02:38:20.183Z,21.18
2022-08-30T02:40:23.294Z,21.26
2022-08-30T02:42:26.058Z,21.38
2022-08-30T02:44:28.871Z,21.48
2022-08-30T02:46:33.411Z,21.18
2022-08-30T02:48:37.558Z,21.38
2022-08-30T02:50:41.428Z,21.34
2022-08-30T02:52:45.290Z,21.39
2022-08-30T02:54:51.511Z,21.44
2022-08-30T02:56:54.235Z,21.47
2022-08-30T02:58:56.979Z,21.56
2022-08-30T03:00:59.810Z,21.60
2022-08-30T03:03:04.391Z,21.52
2022-08-30T03:05:07.814Z,21.49
2022-08-30T03:07:10.654Z,21.40
2022-08-30T03:09:13.440Z,21.48
2022-08-30T03:11:16.385Z,21.51
2022-08-30T03:13:19.218Z,21.55
2022-08-30T03:15:25.280Z,21.60
2022-08-30T03:17:28.085Z,21.59
2022-08-30T03:19:32.288Z,21.56
2022-08-30T03:21:37.091Z,21.17
2022-08-30T03:23:40.808Z,21.25
2022-08-30T03:25:43.901Z,21.30
2022-08-30T03:27:46.613Z,21.03
2022-08-30T03:29:49.368Z,21.02
2022-08-30T03:31:53.746Z,20.47
2022-08-30T03:33:56.841Z,19.05
2022-08-30T03:36:01.055Z,18.84
2022-08-30T03:38:03.939Z,18.58
2022-08-30T03:40:09.087Z,18.74
2022-08-30T03:42:13.550Z,19.10
2022-08-30T03:44:16.335Z,17.54
2022-08-30T03:46:19.071Z,16.95
2022-08-30T03:48:27.565Z,16.46
2022-08-30T03:50:31.406Z,17.79
2022-08-30T03:52:35.633Z,18.78
2022-08-30T03:54:40.142Z,19.16
2022-08-30T03:56:43.210Z,18.40
2022-08-30T03:58:46.400Z,19.61
2022-08-30T04:00:49.225Z,19.57
2022-08-30T04:02:52.083Z,19.83
2022-08-30T04:04:55.081Z,20.11
2022-08-30T04:06:58.051Z,19.55
2022-08-30T04:09:02.147Z,20.48
2022-08-30T04:11:05.249Z,20.56
2022-08-30T04:13:08.122Z,20.66
2022-08-30T04:15:12.625Z,20.60
2022-08-30T04:17:15.392Z,20.58
2022-08-30T04:19:18.731Z,20.68
2022-08-30T04:21:21.522Z,20.45
2022-08-30T04:23:24.475Z,20.06
2022-08-30T04:25:28.643Z,19.32
2022-08-30T04:27:31.369Z,19.67
2022-08-30T04:29:35.026Z,20.35
2022-08-30T04:31:37.895Z,20.41
2022-08-30T04:33:41.786Z,20.14
2022-08-30T04:35:46.098Z,19.63
2022-08-30T04:37:48.782Z,18.84
2022-08-30T04:39:51.683Z,17.13
2022-08-30T04:41:57.486Z,16.89
2022-08-30T04:44:03.506Z,18.33
2022-08-30T04:46:08.421Z,17.77
2022-08-30T04:48:11.399Z,18.03
2022-08-30T04:50:17.413Z,17.96
2022-08-30T04:52:20.312Z,17.83
2022-08-30T04:54:23.139Z,17.70
2022-08-30T04:56:26.390Z,16.12
2022-08-30T04:58:30.540Z,17.44
2022-08-30T05:00:33.641Z,17.52
2022-08-30T05:02:36.604Z,17.55
2022-08-30T05:05:00.187Z,16.49
2022-08-30T05:07:02.932Z,17.50
2022-08-30T05:09:06.023Z,17.46
2022-08-30T05:11:09.802Z,17.54
2022-08-30T05:13:12.801Z,17.57
2022-08-30T05:15:17.108Z,17.62
2022-08-30T05:17:20.199Z,17.65
2022-08-30T05:19:23.656Z,17.65
2022-08-30T05:21:28.602Z,17.70
2022-08-30T05:23:31.414Z,17.73
2022-08-30T05:25:37.850Z,17.73
2022-08-30T05:27:40.608Z,17.72
2022-08-30T05:29:43.955Z,17.71
2022-08-30T05:31:48.114Z,17.59
2022-08-30T05:33:52.032Z,17.70
2022-08-30T05:35:54.899Z,17.67
2022-08-30T05:37:57.684Z,17.66
2022-08-30T05:40:01.335Z,17.68
2022-08-30T05:42:04.894Z,17.71
2022-08-30T05:44:10.081Z,17.76
2022-08-30T05:46:19.406Z,17.81
2022-08-30T05:48:23.805Z,17.53
2022-08-30T05:50:26.558Z,17.93
2022-08-30T05:52:29.312Z,17.99
2022-08-30T05:54:32.113Z,18.01
2022-08-30T05:56:37.403Z,17.41
2022-08-30T05:58:41.040Z,17.73
2022-08-30T06:00:43.798Z,18.16
2022-08-30T06:02:46.902Z,18.23
2022-08-30T06:04:51.118Z,18.25
2022-08-30T06:06:55.325Z,16.81
2022-08-30T06:08:58.489Z,18.27
2022-08-30T06:11:01.277Z,17.60
2022-08-30T06:13:04.181Z,18.33
2022-08-30T06:15:08.341Z,18.42
2022-08-30T06:17:11.644Z,18.49
2022-08-30T06:19:16.267Z,18.54
2022-08-30T06:21:22.102Z,18.50
2022-08-30T06:23:24.898Z,18.61
2022-08-30T06:25:27.645Z,18.70
2022-08-30T06:27:45.065Z,18.41
2022-08-30T06:29:47.864Z,18.93
2022-08-30T06:31:51.383Z,19.06
2022-08-30T06:33:54.716Z,19.19
2022-08-30T06:36:05.721Z,19.29
2022-08-30T06:38:10.278Z,19.44
2022-08-30T06:40:16.876Z,19.57
2022-08-30T06:42:19.911Z,19.65
2022-08-30T06:44:23.001Z,19.72
2022-08-30T06:46:28.101Z,19.84
2022-08-30T06:48:30.934Z,19.89
2022-08-30T06:50:33.761Z,20.04
2022-08-30T06:52:37.265Z,20.15
2022-08-30T06:54:42.570Z,20.24
2022-08-30T06:56:58.182Z,20.30
2022-08-30T06:59:01.982Z,20.48
2022-08-30T07:01:04.877Z,20.62
2022-08-30T07:03:07.896Z,20.71
2022-08-30T07:05:16.736Z,20.82
2022-08-30T07:07:21.731Z,20.71
2022-08-30T07:09:25.113Z,20.38
2022-08-30T07:11:33.115Z,20.18
2022-08-30T07:13:35.994Z,21.24
2022-08-30T07:15:43.574Z,21.32
2022-08-30T07:18:04.147Z,21.39
2022-08-30T07:20:07.972Z,21.47
2022-08-30T07:22:10.731Z,20.76
2022-08-30T07:24:14.396Z,21.39
2022-08-30T07:26:19.558Z,21.59
2022-08-30T07:28:23.795Z,21.70
2022-08-30T07:30:26.674Z,21.67
2022-08-30T07:32:29.674Z,21.70
2022-08-30T07:34:32.780Z,21.89
2022-08-30T07:36:36.628Z,22.01
2022-08-30T07:38:39.724Z,22.09
2022-08-30T07:40:43.040Z,22.13
2022-08-30T07:42:46.039Z,22.24
2022-08-30T07:44:52.679Z,22.26
2022-08-30T07:46:58.850Z,22.37
2022-08-30T07:49:04.151Z,22.41
2022-08-30T07:51:11.685Z,22.52
2022-08-30T07:53:14.887Z,22.52
2022-08-30T07:55:17.969Z,22.59
2022-08-30T07:57:20.741Z,22.61
2022-08-30T07:59:23.687Z,22.69
2022-08-30T08:01:27.895Z,22.75
2022-08-30T08:03:30.890Z,22.67
2022-08-30T08:05:37.128Z,22.95
2022-08-30T08:07:39.898Z,23.04
2022-08-30T08:09:43.029Z,23.20
2022-08-30T08:11:45.801Z,22.69
2022-08-30T08:13:54.331Z,23.26
2022-08-30T08:15:57.402Z,23.35
2022-08-30T08:18:01.715Z,23.51
2022-08-30T08:20:05.499Z,23.49
2022-08-30T08:22:23.452Z,23.68
2022-08-30T08:24:26.628Z,23.85
2022-08-30T08:26:29.430Z,23.84
2022-08-30T08:28:32.513Z,22.86
2022-08-30T08:30:38.116Z,22.44
2022-08-30T08:32:41.710Z,23.65
2022-08-30T08:34:48.254Z,24.50
2022-08-30T08:36:51.513Z,24.58
2022-08-30T08:38:54.623Z,24.71
2022-08-30T08:41:06.237Z,23.95
2022-08-30T08:43:12.996Z,24.64
2022-08-30T08:45:20.891Z,24.89
2022-08-30T08:47:30.929Z,25.20
2022-08-30T08:49:37.207Z,24.54
2022-08-30T08:52:10.648Z,25.43
2022-08-30T08:54:17.584Z,25.56
2022-08-30T08:56:22.723Z,25.72
2022-08-30T08:58:28.553Z,25.82
2022-08-30T09:00:33.352Z,25.91
2022-08-30T09:02:42.892Z,24.91
2022-08-30T09:04:46.334Z,26.31
2022-08-30T09:06:58.357Z,26.44
2022-08-30T09:09:01.177Z,26.43
2022-08-30T09:11:11.111Z,26.63
2022-08-30T09:13:14.429Z,26.00
2022-08-30T09:15:19.973Z,26.76
2022-08-30T09:17:24.568Z,26.89
2022-08-30T09:22:00.180Z,27.01
2022-08-30T09:24:08.655Z,26.94
2022-08-30T09:26:14.727Z,24.05
2022-08-30T09:28:23.630Z,27.35
2022-08-30T09:30:29.611Z,27.39
2022-08-30T09:32:38.980Z,27.39
2022-08-30T09:34:44.568Z,27.51
2022-08-30T09:36:49.753Z,27.81
2022-08-30T09:39:03.025Z,28.06
2022-08-30T09:41:37.795Z,28.31
2022-08-30T09:43:40.589Z,28.28
2022-08-30T09:45:46.593Z,27.19
2022-08-30T09:47:49.505Z,28.07
2022-08-30T09:50:05.518Z,28.31
2022-08-30T09:52:18.015Z,28.40
2022-08-30T09:54:27.537Z,28.46
2022-08-30T09:56:40.736Z,28.60
2022-08-30T09:59:00.563Z,27.78
2022-08-30T10:01:12.066Z,28.68
2022-08-30T10:03:40.276Z,28.77
2022-08-30T10:05:53.579Z,29.03
2022-08-30T10:08:07.994Z,29.19
2022-08-30T10:10:18.822Z,29.36
2022-08-30T10:12:42.204Z,29.52
2022-08-30T10:14:56.530Z,28.90
2022-08-30T10:17:02.981Z,29.57
2022-08-30T10:19:19.419Z,29.76
2022-08-30T10:21:29.314Z,29.65
2022-08-30T10:23:37.218Z,30.13
2022-08-30T10:25:48.789Z,30.25
2022-08-30T10:27:59.070Z,29.22
2022-08-30T10:30:05.905Z,29.95
2022-08-30T10:32:16.397Z,30.44
2022-08-30T10:34:26.237Z,30.52
2022-08-30T10:36:34.217Z,30.43
2022-08-30T10:38:39.272Z,30.13
2022-08-30T10:41:05.575Z,30.53
2022-08-30T10:43:20.369Z,30.84
2022-08-30T10:45:28.185Z,31.08
2022-08-30T10:47:38.391Z,31.39
2022-08-30T10:49:45.618Z,31.43
2022-08-30T10:51:54.759Z,31.62
2022-08-30T10:54:09.275Z,30.89
2022-08-30T10:56:20.501Z,31.86
2022-08-30T10:58:23.615Z,31.93
2022-08-30T11:00:30.902Z,31.10
2022-08-30T11:03:02.106Z,31.99
2022-08-30T11:05:42.262Z,31.53
2022-08-30T11:07:57.376Z,30.83
2022-08-30T11:10:23.610Z,30.66
2022-08-30T11:12:34.726Z,30.96
2022-08-30T11:14:41.173Z,31.50
2022-08-30T11:16:49.672Z,31.27
2022-08-30T11:18:56.318Z,31.32
2022-08-30T11:21:26.010Z,31.93
2022-08-30T11:23:33.306Z,32.11
2022-08-30T11:25:56.866Z,32.12
2022-08-30T11:28:02.118Z,32.40
2022-08-30T11:30:52.668Z,32.56
2022-08-30T11:33:00.666Z,32.61
2022-08-30T11:35:06.289Z,32.65
2022-08-30T11:37:35.943Z,32.22
2022-08-30T11:39:57.376Z,32.02
2022-08-30T11:42:14.008Z,31.98
2022-08-30T11:44:33.821Z,32.12
2022-08-30T11:46:39.685Z,32.10
2022-08-30T11:48:47.045Z,32.23
2022-08-30T11:51:05.469Z,32.88
2022-08-30T11:53:17.198Z,33.42
2022-08-30T11:55:45.211Z,33.48
2022-08-30T11:57:53.900Z,33.65
2022-08-30T12:00:07.507Z,33.66
2022-08-30T12:02:46.415Z,33.58
2022-08-30T12:04:49.470Z,33.38
2022-08-30T12:06:56.893Z,33.36
2022-08-30T12:09:02.144Z,32.32
2022-08-30T12:11:08.999Z,33.09
2022-08-30T12:14:00.791Z,32.89
2022-08-30T12:16:06.530Z,32.98
2022-08-30T12:18:28.350Z,33.07
2022-08-30T12:20:42.162Z,33.29
2022-08-30T12:22:45.526Z,33.49
2022-08-30T12:24:53.731Z,33.86
2022-08-30T12:26:58.220Z,34.23
2022-08-30T12:29:14.479Z,34.63
2022-08-30T12:31:22.943Z,34.44
2022-08-30T12:33:39.507Z,35.37
2022-08-30T12:35:45.366Z,35.45
2022-08-30T12:37:59.096Z,35.13
2022-08-30T12:40:06.157Z,35.21
2022-08-30T12:42:17.697Z,34.94
2022-08-30T12:44:24.306Z,35.33
2022-08-30T12:46:30.220Z,35.06
2022-08-30T12:48:36.372Z,35.21
2022-08-30T12:50:51.613Z,35.11
2022-08-30T12:53:00.874Z,34.77
2022-08-30T12:55:17.593Z,33.51
2022-08-30T12:57:38.535Z,33.77
2022-08-30T12:59:56.843Z,33.14
2022-08-30T13:02:20.326Z,33.82
2022-08-30T13:04:28.188Z,33.61
2022-08-30T13:06:40.327Z,33.53
2022-08-30T13:08:53.173Z,33.25
2022-08-30T13:11:01.531Z,33.24
2022-08-30T13:13:08.742Z,32.88
2022-08-30T13:15:16.477Z,33.10
2022-08-30T13:17:25.623Z,33.64
2022-08-30T13:19:34.134Z,33.77
2022-08-30T13:21:36.938Z,33.67
2022-08-30T13:23:39.746Z,33.94
2022-08-30T13:25:42.542Z,34.09
2022-08-30T13:27:45.351Z,34.10
2022-08-30T13:29:48.193Z,34.27
2022-08-30T13:31:50.994Z,34.45
2022-08-30T13:33:55.802Z,34.08
2022-08-30T13:35:59.402Z,34.34
2022-08-30T13:38:04.107Z,33.70
2022-08-30T13:40:50.174Z,32.22
2022-08-30T13:42:53.120Z,32.58
2022-08-30T13:44:55.899Z,32.84
2022-08-30T13:47:32.324Z,33.13
2022-08-30T13:52:16.355Z,33.82
2022-08-30T13:54:13.932Z,33.77
2022-08-30T13:56:16.977Z,33.66
2022-08-30T13:58:20.144Z,33.06
2022-08-30T14:00:23.508Z,33.50
2022-08-30T14:02:26.789Z,33.00
2022-08-30T14:04:31.282Z,33.68
2022-08-30T14:06:34.868Z,33.90
2022-08-30T14:08:49.797Z,33.17
2022-08-30T14:10:54.867Z,32.06
2022-08-30T14:13:08.068Z,32.26
2022-08-30T14:15:11.597Z,33.19
2022-08-30T14:17:14.568Z,33.39
2022-08-30T14:19:17.789Z,34.17
2022-08-30T14:21:24.698Z,34.68
2022-08-30T14:23:28.614Z,34.86
2022-08-30T14:25:31.443Z,34.54
2022-08-30T14:27:34.367Z,33.59
2022-08-30T14:29:37.102Z,33.53
2022-08-30T14:31:42.140Z,33.58
2022-08-30T14:33:44.977Z,27.38
2022-08-30T14:35:47.786Z,32.55
2022-08-30T14:37:53.349Z,32.33
2022-08-30T14:39:56.264Z,32.23
2022-08-30T14:42:04.361Z,32.68
2022-08-30T14:44:11.021Z,32.68
2022-08-30T14:46:14.132Z,32.97
2022-08-30T14:48:17.077Z,33.70
2022-08-30T14:50:20.221Z,33.64
2022-08-30T14:52:23.056Z,33.35
2022-08-30T14:54:30.269Z,33.62
2022-08-30T14:56:33.043Z,33.47
2022-08-30T14:58:35.807Z,33.80
2022-08-30T15:00:39.454Z,32.88
2022-08-30T15:02:42.370Z,33.95
2022-08-30T15:04:45.698Z,33.18
2022-08-30T15:06:52.920Z,33.55
2022-08-30T15:08:56.771Z,33.99
2022-08-30T15:11:01.415Z,33.96
2022-08-30T15:13:06.305Z,33.99
2022-08-30T15:15:11.365Z,33.79
2022-08-30T15:17:14.302Z,34.41
2022-08-30T15:19:18.263Z,34.87
2022-08-30T15:21:27.047Z,33.58
2022-08-30T15:23:29.850Z,34.65
2022-08-30T15:25:33.063Z,34.85
2022-08-30T15:27:37.636Z,34.50
2022-08-30T15:29:40.449Z,34.96
2022-08-30T15:31:44.561Z,34.87
2022-08-30T15:33:47.425Z,34.52
2022-08-30T15:35:52.035Z,33.92
2022-08-30T15:37:55.040Z,33.59
2022-08-30T15:39:58.272Z,33.10
2022-08-30T15:42:02.034Z,32.74
2022-08-30T15:44:06.592Z,32.23
2022-08-30T15:46:22.969Z,32.12
2022-08-30T15:48:25.889Z,31.94
2022-08-30T15:50:29.339Z,31.87
2022-08-30T15:52:33.464Z,31.56
2022-08-30T15:54:36.318Z,31.33
2022-08-30T15:56:39.128Z,31.33
2022-08-30T15:58:42.594Z,31.40
2022-08-30T16:00:46.919Z,31.26
2022-08-30T16:02:50.680Z,30.95
2022-08-30T16:04:54.801Z,30.74
2022-08-30T16:06:57.609Z,30.55
2022-08-30T16:09:00.426Z,30.45
2022-08-30T16:11:05.786Z,29.95
2022-08-30T16:13:08.642Z,29.77
2022-08-30T16:15:13.004Z,29.81
2022-08-30T16:17:17.235Z,29.54
2022-08-30T16:19:21.281Z,29.55
2022-08-30T16:21:27.059Z,29.76
2022-08-30T16:23:33.456Z,29.84
2022-08-30T16:25:40.666Z,29.80
2022-08-30T16:27:44.149Z,29.41
2022-08-30T16:29:46.918Z,29.25
2022-08-30T16:31:50.042Z,29.31
2022-08-30T16:33:54.469Z,29.35
2022-08-30T16:35:57.877Z,29.18
2022-08-30T16:38:00.755Z,28.54
2022-08-30T16:40:04.454Z,27.80
2022-08-30T16:42:08.432Z,28.74
2022-08-30T16:44:11.482Z,28.54
2022-08-30T16:46:17.254Z,28.58
2022-08-30T16:48:20.115Z,28.03
2022-08-30T16:50:24.281Z,28.62
2022-08-30T16:52:27.214Z,28.26
2022-08-30T16:54:31.905Z,27.10
2022-08-30T16:56:36.730Z,28.07
2022-08-30T16:58:39.857Z,27.83
2022-08-30T17:00:47.490Z,28.34
2022-08-30T17:02:54.385Z,28.39
2022-08-30T17:04:57.270Z,28.52
2022-08-30T17:07:02.567Z,28.37
2022-08-30T17:09:06.069Z,28.03
2022-08-30T17:11:10.078Z,27.81
2022-08-30T17:13:12.989Z,27.81
2022-08-30T17:15:16.681Z,27.58
2022-08-30T17:17:22.130Z,27.27
2022-08-30T17:19:26.731Z,27.50
2022-08-30T17:21:31.288Z,27.09
2022-08-30T17:23:36.123Z,26.36
2022-08-30T17:25:41.611Z,27.16
2022-08-30T17:27:44.632Z,27.57
2022-08-30T17:29:47.491Z,27.44
2022-08-30T17:31:51.486Z,27.35
2022-08-30T17:33:57.991Z,27.41
2022-08-30T17:36:04.553Z,27.34
2022-08-30T17:38:07.792Z,27.28
2022-08-30T17:40:15.602Z,27.32
2022-08-30T17:42:18.485Z,27.16
2022-08-30T17:44:25.892Z,27.09
2022-08-30T17:46:29.318Z,27.08
2022-08-30T17:48:33.277Z,27.04
2022-08-30T17:50:36.357Z,26.85
2022-08-30T17:52:39.114Z,27.09
2022-08-30T17:54:42.616Z,27.04
2022-08-30T17:56:46.720Z,27.05
2022-08-30T17:58:51.084Z,26.85
2022-08-30T18:01:04.352Z,25.54
2022-08-30T18:03:14.380Z,26.43
2022-08-30T18:05:18.202Z,26.43
2022-08-30T18:07:27.798Z,26.14
2022-08-30T18:09:34.034Z,26.10
2022-08-30T18:11:39.447Z,26.13
2022-08-30T18:13:43.680Z,26.26
2022-08-30T18:15:46.557Z,26.02
2022-08-30T18:17:53.577Z,26.15
2022-08-30T18:19:56.526Z,26.14
2022-08-30T18:22:02.699Z,26.15
2022-08-30T18:24:07.300Z,25.70
2022-08-30T18:26:13.198Z,25.51
2022-08-30T18:28:16.027Z,25.67
2022-08-30T18:30:21.096Z,25.60
2022-08-30T18:32:32.727Z,25.93
2022-08-30T18:34:40.323Z,25.70
2022-08-30T18:36:45.593Z,25.63
2022-08-30T18:38:49.681Z,25.58
2022-08-30T18:40:53.145Z,24.19
2022-08-30T18:42:56.046Z,25.65
2022-08-30T18:44:59.970Z,25.48
2022-08-30T18:49:42.154Z,25.25
2022-08-30T18:51:44.952Z,25.39
2022-08-30T18:53:50.131Z,25.29
2022-08-30T18:55:53.882Z,25.21
2022-08-30T18:57:57.576Z,25.20
2022-08-30T19:00:00.297Z,25.22
2022-08-30T19:02:03.630Z,25.19
2022-08-30T19:04:08.051Z,24.66
2022-08-30T19:06:13.500Z,25.22
2022-08-30T19:08:16.457Z,25.20
2022-08-30T19:10:25.209Z,25.22
2022-08-30T19:12:28.950Z,24.35
2022-08-30T19:14:31.787Z,24.89
2022-08-30T19:16:34.751Z,24.08
2022-08-30T19:18:39.696Z,25.03
2022-08-30T19:20:44.736Z,21.59
2022-08-30T19:23:08.927Z,25.11
2022-08-30T19:25:15.469Z,24.64
2022-08-30T19:27:21.695Z,25.00
2022-08-30T19:29:41.084Z,24.76
2022-08-30T19:31:44.751Z,24.87
2022-08-30T19:33:48.609Z,25.02
2022-08-30T19:35:53.657Z,23.97
2022-08-30T19:37:56.609Z,24.19
2022-08-30T19:40:00.742Z,25.05
2022-08-30T19:42:04.142Z,24.97
2022-08-30T19:44:08.191Z,23.38
2022-08-30T19:46:15.369Z,24.29
2022-08-30T19:48:22.228Z,24.84
2022-08-30T19:50:25.432Z,24.84
2022-08-30T19:52:31.194Z,24.87
2022-08-30T19:54:34.761Z,22.64
2022-08-30T19:56:37.644Z,24.81
2022-08-30T19:58:41.401Z,21.71
2022-08-30T20:00:54.131Z,24.12
2022-08-30T20:03:01.528Z,24.76
2022-08-30T20:05:05.695Z,24.49
2022-08-30T20:07:09.113Z,24.69
2022-08-30T20:09:14.222Z,24.64
2022-08-30T20:11:19.222Z,24.65
2022-08-30T20:13:23.701Z,23.12
2022-08-30T20:15:27.050Z,23.61
2022-08-30T20:17:47.571Z,22.57
2022-08-30T20:19:52.948Z,23.90
2022-08-30T20:21:55.748Z,24.44
2022-08-30T20:24:10.830Z,21.69
2022-08-30T20:24:29.506Z,25.28
2022-08-30T20:26:16.095Z,24.37
2022-08-30T20:28:20.562Z,24.40
2022-08-30T20:30:23.607Z,24.46
2022-08-30T20:32:26.698Z,23.85
2022-08-30T20:34:29.681Z,24.43
2022-08-30T20:36:33.600Z,24.35
2022-08-30T20:38:36.759Z,23.38
2022-08-30T20:40:40.782Z,24.17
2022-08-30T20:42:46.375Z,24.25
2022-08-30T20:44:49.304Z,24.37
2022-08-30T20:46:52.207Z,24.20
2022-08-30T20:48:55.006Z,24.16
2022-08-30T20:50:57.829Z,24.23
2022-08-30T20:53:00.655Z,24.31
2022-08-30T20:55:04.563Z,24.21
2022-08-30T20:57:07.856Z,24.20
2022-08-30T20:59:12.075Z,24.25
2022-08-30T21:01:15.860Z,24.24
2022-08-30T21:03:26.130Z,24.24
2022-08-30T21:05:30.774Z,24.24
2022-08-30T21:07:33.592Z,24.28
2022-08-30T21:09:37.860Z,24.18
2022-08-30T21:11:43.539Z,22.70
2022-08-30T21:13:48.376Z,23.96
2022-08-30T21:15:54.602Z,23.73
2022-08-30T21:17:57.767Z,23.73
2022-08-30T21:20:00.662Z,23.97
2022-08-30T21:22:03.747Z,24.09
2022-08-30T21:24:09.909Z,24.15
2022-08-30T21:26:12.743Z,24.04
2022-08-30T21:28:15.820Z,22.72
2022-08-30T21:30:20.530Z,23.84
2022-08-30T21:32:24.939Z,23.91
2022-08-30T21:34:27.866Z,24.00
2022-08-30T21:36:51.455Z,21.91
2022-08-30T21:39:00.472Z,22.97
2022-08-30T21:41:03.770Z,20.45
2022-08-30T21:43:07.526Z,23.75
2022-08-30T21:45:12.007Z,23.75
2022-08-30T21:47:14.852Z,23.74
2022-08-30T21:49:27.627Z,23.69
2022-08-30T21:51:34.119Z,23.52
2022-08-30T21:53:37.759Z,23.95
2022-08-30T21:55:40.828Z,24.05
2022-08-30T21:57:46.631Z,22.35
2022-08-30T21:59:49.490Z,23.90
2022-08-30T22:01:52.470Z,23.08
2022-08-30T22:03:57.682Z,23.73
2022-08-30T22:06:01.970Z,23.68
2022-08-30T22:08:05.028Z,23.47
2022-08-30T22:10:11.079Z,23.46
2022-08-30T22:12:14.094Z,23.29
2022-08-30T22:14:17.516Z,23.52
2022-08-30T22:16:21.003Z,23.40
2022-08-30T22:18:23.946Z,23.33
2022-08-30T22:20:27.548Z,23.39
2022-08-30T22:22:35.008Z,23.42
2022-08-30T22:24:39.508Z,22.87
2022-08-30T22:26:43.387Z,23.30
2022-08-30T22:28:46.707Z,23.79
2022-08-30T22:30:49.819Z,23.32
2022-08-30T22:32:52.851Z,22.81
2022-08-30T22:34:57.495Z,22.95
2022-08-30T22:37:00.761Z,22.70
2022-08-30T22:39:07.119Z,22.49
2022-08-30T22:41:12.422Z,22.24
2022-08-30T22:43:15.812Z,23.09
2022-08-30T22:45:19.289Z,22.91
2022-08-30T22:47:22.274Z,23.12
2022-08-30T22:49:26.297Z,22.73
2022-08-30T22:51:29.206Z,23.03
2022-08-30T22:53:32.483Z,23.27
2022-08-30T22:55:40.372Z,23.36
2022-08-30T22:57:43.359Z,23.39
2022-08-30T22:59:46.926Z,23.28
2022-08-30T23:01:50.020Z,23.32
2022-08-30T23:03:53.904Z,22.97
2022-08-30T23:05:56.935Z,22.06
2022-08-30T23:08:00.063Z,22.00
2022-08-30T23:10:03.665Z,22.35
2022-08-30T23:12:08.390Z,22.51
2022-08-30T23:14:11.367Z,22.54
2022-08-30T23:16:16.253Z,20.94
2022-08-30T23:18:19.989Z,22.28
2022-08-30T23:20:24.432Z,22.10
2022-08-30T23:22:27.678Z,22.09
2022-08-30T23:24:49.156Z,22.34
2022-08-30T23:27:09.607Z,22.13
2022-08-30T23:29:31.569Z,22.30
2022-08-30T23:31:52.044Z,22.30
2022-08-30T23:34:17.518Z,22.19
2022-08-30T23:36:38.094Z,22.06
2022-08-30T23:38:58.526Z,22.11
2022-08-30T23:41:18.986Z,22.04
2022-08-30T23:43:39.209Z,22.24
2022-08-30T23:46:01.406Z,22.07
2022-08-30T23:48:21.771Z,21.43
2022-08-30T23:50:42.078Z,22.11
2022-08-30T23:53:02.150Z,22.08
2022-08-30T23:55:23.650Z,21.97
2022-08-30T23:57:44.827Z,21.80
